To NAV CANADA Home Page Login to a new session Search on AWWS site Feedback and Comments Disclaimer Vers la page française équivalente Tips FAQ What's new on the site To the Forecasts and Observations / NOTAM section To "File a Flight Plan" website Publications and other links Update of the User's profile FIC Telephone Numbers My Weather Data Folder Route Weather Data Regional Weather Data Local Weather Data To the Forecasts and Observations / NOTAM section
Request Generated 04/23/2014 at 20:35:29 UTC . Weather information available at that time is displayed.

METAR/TAF

HAMILTON/ON    

METAR CYHM 232000Z 34017G22KT 15SM FEW035 FEW100 10/M06 A2995 RMK
CU1AC1 CU TR AC TR SLP147=
METAR CYHM 231900Z 31010G22KT 15SM FEW040 FEW230 10/M03 A2995 RMK
CU1CI1 CU TR CI TR SLP148=
METAR CYHM 231800Z 32012G21KT 15SM FEW040 09/M03 A2994 RMK CU1
SLP144=

TAF CYHM 231738Z 2318/2418 34010G20KT P6SM FEW040
BECMG 2400/2402 33010KT
FM241000 34006KT P6SM SCT180
BECMG 2414/2416 VRB03KT
RMK NXT FCST BY 240000Z=
Your time UTC time
Weather data provided by Environment Canada and NAV CANADA